Time,TemperatureF,DewpointF,PressureIn,WindDirection,WindDirectionDegrees,WindSpeedMPH,WindSpeedGustMPH,Humidity,HourlyPrecipIn,Conditions,Clouds,dailyrainin,SoftwareType,DateUTC
2014-01-31 01:12:00,51.0,-99.9,-100.00,NNW,340,1.0,4.0,-999,-99.99,,,-99.99,,2014-01-31 08:12:00,
2014-01-31 01:22:00,51.0,-99.9,-100.00,NNW,340,1.0,4.0,-999,-99.99,,,-99.99,,2014-01-31 08:22:00,
2014-01-31 04:12:00,51.0,-99.9,-100.00,North,10,6.0,6.0,-999,-99.99,,,-99.99,,2014-01-31 11:12:00,
2014-01-31 04:22:00,51.0,-99.9,-100.00,North,10,6.0,6.0,-999,-99.99,,,-99.99,,2014-01-31 11:22:00,
2014-01-31 04:42:00,52.0,-99.9,-100.00,North,357,5.0,6.0,-999,-99.99,,,-99.99,,2014-01-31 11:42:00,
2014-01-31 05:00:00,52.0,-99.9,-100.00,North,355,4.0,5.0,-999,-99.99,,,-99.99,,2014-01-31 12:00:00,
2014-01-31 05:52:00,52.0,-99.9,-100.00,North,355,4.0,5.0,-999,-99.99,,,-99.99,,2014-01-31 12:52:00,
2014-01-31 08:10:00,51.0,-99.9,-100.00,NNW,343,5.0,5.0,-999,-99.99,,,-99.99,,2014-01-31 15:10:00,
2014-01-31 08:54:00,51.0,-99.9,-100.00,NNW,343,5.0,5.0,-999,-99.99,,,-99.99,,2014-01-31 15:54:00,
2014-01-31 09:03:00,51.0,-99.9,-100.00,NNW,343,5.0,5.0,-999,-99.99,,,-99.99,,2014-01-31 16:03:00,
2014-01-31 09:43:00,55.0,-99.9,-100.00,North,351,5.0,6.0,-999,-99.99,,,-99.99,,2014-01-31 16:43:00,
2014-01-31 09:53:00,57.0,-99.9,-100.00,North,6,7.0,8.0,-999,-99.99,,,-99.99,,2014-01-31 16:53:00,
2014-01-31 10:02:00,57.0,-99.9,-100.00,North,6,7.0,8.0,-999,-99.99,,,-99.99,,2014-01-31 17:02:00,
2014-01-31 13:53:00,63.0,-99.9,-100.00,NNW,347,10.0,13.0,-999,-99.99,,,-99.99,,2014-01-31 20:53:00,
2014-01-31 14:02:00,63.0,-99.9,-100.00,NNW,347,10.0,13.0,-999,-99.99,,,-99.99,,2014-01-31 21:02:00,
2014-01-31 15:13:00,65.0,-99.9,-100.00,North,2,6.0,12.0,-999,-99.99,,,-99.99,,2014-01-31 22:13:00,
2014-01-31 15:23:00,65.0,-99.9,-100.00,North,2,6.0,12.0,-999,-99.99,,,-99.99,,2014-01-31 22:23:00,
2014-01-31 15:53:00,65.0,-99.9,-100.00,North,1,6.0,12.0,-999,-99.99,,,-99.99,,2014-01-31 22:53:00,
2014-01-31 16:02:00,65.0,-99.9,-100.00,North,1,6.0,12.0,-999,-99.99,,,-99.99,,2014-01-31 23:02:00,
2014-01-31 16:42:00,65.0,-99.9,-100.00,North,5,11.0,12.0,-999,-99.99,,,-99.99,,2014-01-31 23:42:00,
2014-01-31 16:54:00,65.0,-99.9,-100.00,North,5,11.0,12.0,-999,-99.99,,,-99.99,,2014-01-31 23:54:00,
2014-01-31 17:40:00,60.0,-99.9,-100.00,NNE,19,6.0,9.0,-999,-99.99,,,-99.99,,2014-02-01 00:40:00,
2014-01-31 18:22:00,60.0,-99.9,-100.00,NNE,19,6.0,9.0,-999,-99.99,,,-99.99,,2014-02-01 01:22:00,
2014-01-31 18:32:00,60.0,-99.9,-100.00,NNE,19,6.0,9.0,-999,-99.99,,,-99.99,,2014-02-01 01:32:00,
2014-01-31 19:20:00,58.0,-99.9,-100.00,North,351,3.0,5.0,-999,-99.99,,,-99.99,,2014-02-01 02:20:00,
2014-01-31 20:12:00,58.0,-99.9,-100.00,North,351,3.0,5.0,-999,-99.99,,,-99.99,,2014-02-01 03:12:00,
2014-01-31 21:43:00,54.0,-99.9,-100.00,North,2,4.0,6.0,-999,-99.99,,,-99.99,,2014-02-01 04:43:00,
2014-01-31 22:00:00,54.0,-99.9,-100.00,North,5,4.0,7.0,-999,-99.99,,,-99.99,,2014-02-01 05:00:00,
2014-01-31 22:54:00,54.0,-99.9,-100.00,North,5,4.0,7.0,-999,-99.99,,,-99.99,,2014-02-01 05:54:00,
2014-01-31 23:10:00,53.0,-99.9,-100.00,North,2,5.0,6.0,-999,-99.99,,,-99.99,,2014-02-01 06:10:00,
2014-01-31 23:42:00,52.0,-99.9,-100.00,NNW,347,6.0,7.0,-999,-99.99,,,-99.99,,2014-02-01 06:42:00,
2014-01-31 23:53:00,53.0,-99.9,-100.00,North,2,5.0,6.0,-999,-99.99,,,-99.99,,2014-02-01 06:53:00,